sensor_id;sensor_type;location;lat;lon;timestamp;P1;durP1;ratioP1;P2;durP2;ratioP2
17864;SDS011;9058;52.018;4.202;2023-05-10T00:02:07;70.32;;;45.45;;
17864;SDS011;9058;52.018;4.202;2023-05-10T00:04:33;71.07;;;44.88;;
17864;SDS011;9058;52.018;4.202;2023-05-10T00:07:00;78.07;;;48.70;;
17864;SDS011;9058;52.018;4.202;2023-05-10T00:09:26;101.93;;;48.97;;
17864;SDS011;9058;52.018;4.202;2023-05-10T00:11:53;92.00;;;48.47;;
17864;SDS011;9058;52.018;4.202;2023-05-10T00:14:19;99.68;;;51.13;;
17864;SDS011;9058;52.018;4.202;2023-05-10T00:16:46;98.10;;;51.40;;
17864;SDS011;9058;52.018;4.202;2023-05-10T00:19:14;88.45;;;50.90;;
17864;SDS011;9058;52.018;4.202;2023-05-10T00:21:40;91.95;;;53.83;;
17864;SDS011;9058;52.018;4.202;2023-05-10T00:24:07;102.00;;;52.38;;
17864;SDS011;9058;52.018;4.202;2023-05-10T00:26:34;97.05;;;49.53;;
17864;SDS011;9058;52.018;4.202;2023-05-10T00:29:01;104.32;;;50.95;;
17864;SDS011;9058;52.018;4.202;2023-05-10T00:31:27;78.70;;;47.22;;
17864;SDS011;9058;52.018;4.202;2023-05-10T00:33:54;95.50;;;48.10;;
17864;SDS011;9058;52.018;4.202;2023-05-10T00:36:22;97.75;;;47.33;;
17864;SDS011;9058;52.018;4.202;2023-05-10T00:38:48;90.15;;;46.70;;
17864;SDS011;9058;52.018;4.202;2023-05-10T00:41:15;96.55;;;46.13;;
17864;SDS011;9058;52.018;4.202;2023-05-10T00:43:44;101.57;;;48.25;;
17864;SDS011;9058;52.018;4.202;2023-05-10T00:46:11;86.60;;;45.97;;
17864;SDS011;9058;52.018;4.202;2023-05-10T00:48:39;84.50;;;44.88;;
17864;SDS011;9058;52.018;4.202;2023-05-10T00:51:06;79.00;;;40.90;;
17864;SDS011;9058;52.018;4.202;2023-05-10T00:53:33;92.03;;;44.45;;
17864;SDS011;9058;52.018;4.202;2023-05-10T00:56:00;84.38;;;43.15;;
17864;SDS011;9058;52.018;4.202;2023-05-10T00:58:28;91.30;;;40.28;;
17864;SDS011;9058;52.018;4.202;2023-05-10T01:00:56;84.10;;;39.45;;
17864;SDS011;9058;52.018;4.202;2023-05-10T01:03:23;83.20;;;40.40;;
17864;SDS011;9058;52.018;4.202;2023-05-10T01:05:49;83.20;;;40.88;;
17864;SDS011;9058;52.018;4.202;2023-05-10T01:08:16;81.80;;;39.53;;
17864;SDS011;9058;52.018;4.202;2023-05-10T01:10:44;84.50;;;41.70;;
17864;SDS011;9058;52.018;4.202;2023-05-10T01:13:11;91.93;;;42.97;;
17864;SDS011;9058;52.018;4.202;2023-05-10T01:15:38;73.22;;;39.55;;
17864;SDS011;9058;52.018;4.202;2023-05-10T01:18:06;73.65;;;40.20;;
17864;SDS011;9058;52.018;4.202;2023-05-10T01:20:35;83.68;;;43.97;;
17864;SDS011;9058;52.018;4.202;2023-05-10T01:23:11;78.90;;;40.60;;
17864;SDS011;9058;52.018;4.202;2023-05-10T01:25:56;72.28;;;39.35;;
17864;SDS011;9058;52.018;4.202;2023-05-10T01:28:50;73.53;;;38.72;;
17864;SDS011;9058;52.018;4.202;2023-05-10T01:31:22;69.85;;;39.22;;
17864;SDS011;9058;52.018;4.202;2023-05-10T01:33:57;56.33;;;31.80;;
17864;SDS011;9058;52.018;4.202;2023-05-10T01:36:26;59.15;;;36.00;;
17864;SDS011;9058;52.018;4.202;2023-05-10T01:39:01;54.40;;;32.97;;
17864;SDS011;9058;52.018;4.202;2023-05-10T01:41:28;55.72;;;32.70;;
17864;SDS011;9058;52.018;4.202;2023-05-10T01:44:02;45.55;;;30.05;;
17864;SDS011;9058;52.018;4.202;2023-05-10T01:46:32;47.67;;;28.23;;
17864;SDS011;9058;52.018;4.202;2023-05-10T01:49:01;45.17;;;27.15;;
17864;SDS011;9058;52.018;4.202;2023-05-10T01:51:30;43.30;;;27.48;;
17864;SDS011;9058;52.018;4.202;2023-05-10T01:53:59;49.50;;;31.30;;
17864;SDS011;9058;52.018;4.202;2023-05-10T01:56:26;62.17;;;36.15;;
17864;SDS011;9058;52.018;4.202;2023-05-10T01:58:54;55.50;;;32.90;;
17864;SDS011;9058;52.018;4.202;2023-05-10T02:01:20;49.95;;;30.15;;
17864;SDS011;9058;52.018;4.202;2023-05-10T02:03:47;54.22;;;32.83;;
17864;SDS011;9058;52.018;4.202;2023-05-10T02:06:16;65.47;;;39.13;;
17864;SDS011;9058;52.018;4.202;2023-05-10T02:08:44;57.03;;;32.95;;
17864;SDS011;9058;52.018;4.202;2023-05-10T02:11:13;56.97;;;29.83;;
17864;SDS011;9058;52.018;4.202;2023-05-10T02:13:41;47.97;;;28.38;;
17864;SDS011;9058;52.018;4.202;2023-05-10T02:16:08;50.25;;;30.83;;
17864;SDS011;9058;52.018;4.202;2023-05-10T02:18:35;52.85;;;28.17;;
17864;SDS011;9058;52.018;4.202;2023-05-10T02:21:03;65.03;;;35.10;;
17864;SDS011;9058;52.018;4.202;2023-05-10T02:23:39;57.47;;;35.58;;
17864;SDS011;9058;52.018;4.202;2023-05-10T02:26:06;53.03;;;28.80;;
17864;SDS011;9058;52.018;4.202;2023-05-10T02:28:34;56.65;;;35.55;;
17864;SDS011;9058;52.018;4.202;2023-05-10T02:31:02;61.63;;;37.00;;
17864;SDS011;9058;52.018;4.202;2023-05-10T02:33:29;56.70;;;31.92;;
17864;SDS011;9058;52.018;4.202;2023-05-10T02:35:59;66.10;;;35.65;;
17864;SDS011;9058;52.018;4.202;2023-05-10T02:38:26;67.43;;;33.45;;
17864;SDS011;9058;52.018;4.202;2023-05-10T02:40:54;87.35;;;35.53;;
17864;SDS011;9058;52.018;4.202;2023-05-10T02:43:21;92.22;;;34.88;;
17864;SDS011;9058;52.018;4.202;2023-05-10T02:45:49;123.32;;;34.75;;
17864;SDS011;9058;52.018;4.202;2023-05-10T02:48:16;117.53;;;34.42;;
17864;SDS011;9058;52.018;4.202;2023-05-10T02:50:44;144.68;;;32.80;;
17864;SDS011;9058;52.018;4.202;2023-05-10T02:53:18;123.63;;;28.42;;
17864;SDS011;9058;52.018;4.202;2023-05-10T02:55:45;103.72;;;28.13;;
17864;SDS011;9058;52.018;4.202;2023-05-10T02:58:17;89.95;;;23.48;;
17864;SDS011;9058;52.018;4.202;2023-05-10T03:00:44;119.88;;;26.02;;
17864;SDS011;9058;52.018;4.202;2023-05-10T03:03:11;101.78;;;27.00;;
17864;SDS011;9058;52.018;4.202;2023-05-10T03:05:38;84.22;;;26.38;;
17864;SDS011;9058;52.018;4.202;2023-05-10T03:08:05;88.32;;;28.27;;
17864;SDS011;9058;52.018;4.202;2023-05-10T03:10:32;75.20;;;24.48;;
17864;SDS011;9058;52.018;4.202;2023-05-10T03:13:06;52.03;;;21.15;;
17864;SDS011;9058;52.018;4.202;2023-05-10T03:15:37;57.47;;;26.27;;
17864;SDS011;9058;52.018;4.202;2023-05-10T03:18:05;51.10;;;22.35;;
17864;SDS011;9058;52.018;4.202;2023-05-10T03:20:35;46.08;;;23.35;;
17864;SDS011;9058;52.018;4.202;2023-05-10T03:23:04;53.13;;;25.02;;
17864;SDS011;9058;52.018;4.202;2023-05-10T03:25:31;46.25;;;23.67;;
17864;SDS011;9058;52.018;4.202;2023-05-10T03:28:00;45.15;;;22.23;;
17864;SDS011;9058;52.018;4.202;2023-05-10T03:30:27;36.78;;;21.75;;
17864;SDS011;9058;52.018;4.202;2023-05-10T03:32:55;38.55;;;20.48;;
17864;SDS011;9058;52.018;4.202;2023-05-10T03:35:22;41.22;;;21.92;;
17864;SDS011;9058;52.018;4.202;2023-05-10T03:37:51;46.42;;;25.25;;
17864;SDS011;9058;52.018;4.202;2023-05-10T03:40:18;47.85;;;25.33;;
17864;SDS011;9058;52.018;4.202;2023-05-10T03:42:45;44.97;;;23.23;;
17864;SDS011;9058;52.018;4.202;2023-05-10T03:45:14;46.88;;;26.27;;
17864;SDS011;9058;52.018;4.202;2023-05-10T03:47:41;51.38;;;25.88;;
17864;SDS011;9058;52.018;4.202;2023-05-10T03:50:08;59.65;;;31.27;;
17864;SDS011;9058;52.018;4.202;2023-05-10T03:52:35;76.47;;;31.77;;
17864;SDS011;9058;52.018;4.202;2023-05-10T03:55:04;79.30;;;31.38;;
17864;SDS011;9058;52.018;4.202;2023-05-10T03:57:32;116.30;;;27.02;;
17864;SDS011;9058;52.018;4.202;2023-05-10T03:59:58;86.43;;;23.80;;
17864;SDS011;9058;52.018;4.202;2023-05-10T04:02:24;67.72;;;21.58;;
17864;SDS011;9058;52.018;4.202;2023-05-10T04:04:51;33.25;;;14.93;;
17864;SDS011;9058;52.018;4.202;2023-05-10T04:07:20;26.00;;;12.98;;
17864;SDS011;9058;52.018;4.202;2023-05-10T04:09:46;30.42;;;15.23;;
17864;SDS011;9058;52.018;4.202;2023-05-10T04:12:13;23.45;;;12.93;;
17864;SDS011;9058;52.018;4.202;2023-05-10T04:14:40;20.50;;;12.38;;
17864;SDS011;9058;52.018;4.202;2023-05-10T04:17:07;21.17;;;13.23;;
17864;SDS011;9058;52.018;4.202;2023-05-10T04:19:33;23.67;;;13.75;;
17864;SDS011;9058;52.018;4.202;2023-05-10T04:22:02;23.55;;;13.50;;
17864;SDS011;9058;52.018;4.202;2023-05-10T04:24:33;17.50;;;11.02;;
17864;SDS011;9058;52.018;4.202;2023-05-10T04:27:00;17.05;;;11.10;;
17864;SDS011;9058;52.018;4.202;2023-05-10T04:29:29;20.50;;;12.70;;
17864;SDS011;9058;52.018;4.202;2023-05-10T04:31:57;21.52;;;12.75;;
17864;SDS011;9058;52.018;4.202;2023-05-10T04:34:24;20.55;;;13.38;;
17864;SDS011;9058;52.018;4.202;2023-05-10T04:36:51;23.80;;;13.68;;
17864;SDS011;9058;52.018;4.202;2023-05-10T04:39:19;20.10;;;12.75;;
17864;SDS011;9058;52.018;4.202;2023-05-10T04:41:47;27.88;;;17.02;;
17864;SDS011;9058;52.018;4.202;2023-05-10T04:44:15;30.63;;;19.35;;
17864;SDS011;9058;52.018;4.202;2023-05-10T04:46:41;38.78;;;21.20;;
17864;SDS011;9058;52.018;4.202;2023-05-10T04:49:08;41.75;;;20.55;;
17864;SDS011;9058;52.018;4.202;2023-05-10T04:51:35;45.33;;;22.60;;
17864;SDS011;9058;52.018;4.202;2023-05-10T04:54:01;59.85;;;24.83;;
17864;SDS011;9058;52.018;4.202;2023-05-10T04:56:28;60.47;;;25.25;;
17864;SDS011;9058;52.018;4.202;2023-05-10T04:58:55;70.60;;;24.83;;
17864;SDS011;9058;52.018;4.202;2023-05-10T05:01:22;53.42;;;21.35;;
17864;SDS011;9058;52.018;4.202;2023-05-10T05:03:49;58.92;;;22.33;;
17864;SDS011;9058;52.018;4.202;2023-05-10T05:06:17;41.88;;;19.80;;
17864;SDS011;9058;52.018;4.202;2023-05-10T05:08:43;44.40;;;19.73;;
17864;SDS011;9058;52.018;4.202;2023-05-10T05:11:11;37.70;;;18.35;;
17864;SDS011;9058;52.018;4.202;2023-05-10T05:13:37;30.65;;;14.95;;
17864;SDS011;9058;52.018;4.202;2023-05-10T05:16:05;24.67;;;14.23;;
17864;SDS011;9058;52.018;4.202;2023-05-10T05:18:31;20.75;;;12.68;;
17864;SDS011;9058;52.018;4.202;2023-05-10T05:20:59;24.23;;;13.95;;
17864;SDS011;9058;52.018;4.202;2023-05-10T05:23:26;30.00;;;16.58;;
17864;SDS011;9058;52.018;4.202;2023-05-10T05:25:52;40.53;;;17.70;;
17864;SDS011;9058;52.018;4.202;2023-05-10T05:28:19;37.63;;;16.90;;
17864;SDS011;9058;52.018;4.202;2023-05-10T05:30:45;34.08;;;17.02;;
17864;SDS011;9058;52.018;4.202;2023-05-10T05:33:14;38.50;;;17.38;;
17864;SDS011;9058;52.018;4.202;2023-05-10T05:35:41;43.35;;;20.52;;
17864;SDS011;9058;52.018;4.202;2023-05-10T05:38:08;41.22;;;20.35;;
17864;SDS011;9058;52.018;4.202;2023-05-10T05:40:34;48.13;;;22.02;;
17864;SDS011;9058;52.018;4.202;2023-05-10T05:43:00;50.00;;;22.67;;
17864;SDS011;9058;52.018;4.202;2023-05-10T05:45:29;41.22;;;22.83;;
17864;SDS011;9058;52.018;4.202;2023-05-10T05:47:57;51.17;;;26.30;;
17864;SDS011;9058;52.018;4.202;2023-05-10T05:50:27;41.90;;;22.17;;
17864;SDS011;9058;52.018;4.202;2023-05-10T05:52:54;29.83;;;17.98;;
17864;SDS011;9058;52.018;4.202;2023-05-10T05:55:20;34.25;;;18.50;;
17864;SDS011;9058;52.018;4.202;2023-05-10T05:57:47;30.08;;;20.55;;
17864;SDS011;9058;52.018;4.202;2023-05-10T06:00:13;27.42;;;19.00;;
17864;SDS011;9058;52.018;4.202;2023-05-10T06:02:40;26.60;;;16.20;;
17864;SDS011;9058;52.018;4.202;2023-05-10T06:05:07;25.02;;;14.32;;
17864;SDS011;9058;52.018;4.202;2023-05-10T06:07:35;25.92;;;14.70;;
17864;SDS011;9058;52.018;4.202;2023-05-10T06:10:05;21.67;;;14.00;;
17864;SDS011;9058;52.018;4.202;2023-05-10T06:12:31;21.05;;;13.23;;
17864;SDS011;9058;52.018;4.202;2023-05-10T06:14:59;24.23;;;14.60;;
17864;SDS011;9058;52.018;4.202;2023-05-10T06:17:25;28.60;;;12.75;;
17864;SDS011;9058;52.018;4.202;2023-05-10T06:19:52;18.42;;;11.95;;
17864;SDS011;9058;52.018;4.202;2023-05-10T06:22:19;18.65;;;10.63;;
17864;SDS011;9058;52.018;4.202;2023-05-10T06:24:49;20.00;;;12.02;;
17864;SDS011;9058;52.018;4.202;2023-05-10T06:27:15;26.55;;;11.77;;
17864;SDS011;9058;52.018;4.202;2023-05-10T06:29:42;16.73;;;9.77;;
17864;SDS011;9058;52.018;4.202;2023-05-10T06:32:08;16.55;;;10.50;;
17864;SDS011;9058;52.018;4.202;2023-05-10T06:34:35;19.35;;;10.23;;
17864;SDS011;9058;52.018;4.202;2023-05-10T06:37:02;21.00;;;9.63;;
17864;SDS011;9058;52.018;4.202;2023-05-10T06:39:28;19.88;;;10.63;;
17864;SDS011;9058;52.018;4.202;2023-05-10T06:41:57;13.20;;;9.20;;
17864;SDS011;9058;52.018;4.202;2023-05-10T06:44:23;20.05;;;11.55;;
17864;SDS011;9058;52.018;4.202;2023-05-10T06:46:50;17.73;;;10.63;;
17864;SDS011;9058;52.018;4.202;2023-05-10T06:49:22;12.55;;;9.02;;
17864;SDS011;9058;52.018;4.202;2023-05-10T06:51:48;17.73;;;9.50;;
17864;SDS011;9058;52.018;4.202;2023-05-10T06:54:15;18.67;;;10.40;;
17864;SDS011;9058;52.018;4.202;2023-05-10T06:56:41;15.20;;;8.95;;
17864;SDS011;9058;52.018;4.202;2023-05-10T06:59:09;13.73;;;9.45;;
17864;SDS011;9058;52.018;4.202;2023-05-10T07:01:35;14.32;;;9.98;;
17864;SDS011;9058;52.018;4.202;2023-05-10T07:04:02;22.85;;;11.05;;
17864;SDS011;9058;52.018;4.202;2023-05-10T07:06:29;10.93;;;8.27;;
17864;SDS011;9058;52.018;4.202;2023-05-10T07:08:55;12.32;;;8.48;;
17864;SDS011;9058;52.018;4.202;2023-05-10T07:11:22;12.45;;;9.48;;
17864;SDS011;9058;52.018;4.202;2023-05-10T07:13:48;11.63;;;9.20;;
17864;SDS011;9058;52.018;4.202;2023-05-10T07:16:16;10.00;;;8.48;;
17864;SDS011;9058;52.018;4.202;2023-05-10T07:18:42;10.20;;;7.78;;
17864;SDS011;9058;52.018;4.202;2023-05-10T07:21:08;11.18;;;7.35;;
17864;SDS011;9058;52.018;4.202;2023-05-10T07:23:36;10.63;;;7.80;;
17864;SDS011;9058;52.018;4.202;2023-05-10T07:26:03;12.57;;;6.55;;
17864;SDS011;9058;52.018;4.202;2023-05-10T07:28:29;7.22;;;6.47;;
17864;SDS011;9058;52.018;4.202;2023-05-10T07:30:56;7.30;;;6.03;;
17864;SDS011;9058;52.018;4.202;2023-05-10T07:33:25;6.00;;;5.30;;
17864;SDS011;9058;52.018;4.202;2023-05-10T07:35:51;6.95;;;5.55;;
17864;SDS011;9058;52.018;4.202;2023-05-10T07:38:17;5.97;;;5.38;;
17864;SDS011;9058;52.018;4.202;2023-05-10T07:40:44;6.22;;;5.00;;
17864;SDS011;9058;52.018;4.202;2023-05-10T07:43:10;6.00;;;5.20;;
17864;SDS011;9058;52.018;4.202;2023-05-10T07:45:37;8.13;;;4.85;;
17864;SDS011;9058;52.018;4.202;2023-05-10T07:48:03;10.98;;;6.00;;
17864;SDS011;9058;52.018;4.202;2023-05-10T07:50:31;12.05;;;7.63;;
17864;SDS011;9058;52.018;4.202;2023-05-10T07:52:57;14.82;;;8.63;;
17864;SDS011;9058;52.018;4.202;2023-05-10T07:55:24;10.85;;;8.13;;
17864;SDS011;9058;52.018;4.202;2023-05-10T07:57:51;15.60;;;9.70;;
17864;SDS011;9058;52.018;4.202;2023-05-10T08:00:19;13.35;;;9.55;;
17864;SDS011;9058;52.018;4.202;2023-05-10T08:02:45;11.93;;;8.73;;
17864;SDS011;9058;52.018;4.202;2023-05-10T08:05:12;16.58;;;9.40;;
17864;SDS011;9058;52.018;4.202;2023-05-10T08:07:40;11.90;;;8.73;;
17864;SDS011;9058;52.018;4.202;2023-05-10T08:10:07;12.48;;;8.95;;
17864;SDS011;9058;52.018;4.202;2023-05-10T08:12:34;11.27;;;8.27;;
17864;SDS011;9058;52.018;4.202;2023-05-10T08:15:01;11.02;;;8.43;;
17864;SDS011;9058;52.018;4.202;2023-05-10T08:17:28;12.35;;;7.65;;
17864;SDS011;9058;52.018;4.202;2023-05-10T08:19:54;11.13;;;8.15;;
17864;SDS011;9058;52.018;4.202;2023-05-10T08:22:21;13.50;;;8.52;;
17864;SDS011;9058;52.018;4.202;2023-05-10T08:24:48;10.07;;;6.93;;
17864;SDS011;9058;52.018;4.202;2023-05-10T08:27:15;10.68;;;7.60;;
17864;SDS011;9058;52.018;4.202;2023-05-10T08:29:41;9.10;;;7.00;;
17864;SDS011;9058;52.018;4.202;2023-05-10T08:32:07;9.93;;;7.82;;
17864;SDS011;9058;52.018;4.202;2023-05-10T08:34:36;8.38;;;6.28;;
17864;SDS011;9058;52.018;4.202;2023-05-10T08:37:03;10.35;;;6.90;;
17864;SDS011;9058;52.018;4.202;2023-05-10T08:39:29;9.10;;;5.95;;
17864;SDS011;9058;52.018;4.202;2023-05-10T08:42:01;8.60;;;5.60;;
17864;SDS011;9058;52.018;4.202;2023-05-10T08:44:27;8.02;;;5.93;;
17864;SDS011;9058;52.018;4.202;2023-05-10T08:46:55;8.38;;;6.43;;
17864;SDS011;9058;52.018;4.202;2023-05-10T08:49:24;8.55;;;5.63;;
17864;SDS011;9058;52.018;4.202;2023-05-10T08:51:53;11.07;;;6.13;;
17864;SDS011;9058;52.018;4.202;2023-05-10T08:54:21;11.77;;;6.47;;
17864;SDS011;9058;52.018;4.202;2023-05-10T08:56:47;11.38;;;6.80;;
17864;SDS011;9058;52.018;4.202;2023-05-10T08:59:15;8.45;;;5.97;;
17864;SDS011;9058;52.018;4.202;2023-05-10T09:01:42;10.48;;;6.28;;
17864;SDS011;9058;52.018;4.202;2023-05-10T09:04:09;9.07;;;5.88;;
17864;SDS011;9058;52.018;4.202;2023-05-10T09:06:35;6.85;;;4.55;;
17864;SDS011;9058;52.018;4.202;2023-05-10T09:09:02;7.38;;;5.38;;
17864;SDS011;9058;52.018;4.202;2023-05-10T09:11:29;6.63;;;4.75;;
17864;SDS011;9058;52.018;4.202;2023-05-10T09:13:56;8.57;;;4.82;;
17864;SDS011;9058;52.018;4.202;2023-05-10T09:16:25;6.30;;;5.13;;
17864;SDS011;9058;52.018;4.202;2023-05-10T09:18:51;6.32;;;4.88;;
17864;SDS011;9058;52.018;4.202;2023-05-10T09:21:19;6.28;;;5.28;;
17864;SDS011;9058;52.018;4.202;2023-05-10T09:23:45;6.85;;;5.03;;
17864;SDS011;9058;52.018;4.202;2023-05-10T09:26:15;7.72;;;6.00;;
17864;SDS011;9058;52.018;4.202;2023-05-10T09:28:50;9.35;;;5.50;;
17864;SDS011;9058;52.018;4.202;2023-05-10T09:31:17;6.78;;;4.90;;
17864;SDS011;9058;52.018;4.202;2023-05-10T09:33:45;7.03;;;5.45;;
17864;SDS011;9058;52.018;4.202;2023-05-10T09:36:12;7.28;;;4.60;;
17864;SDS011;9058;52.018;4.202;2023-05-10T09:38:46;8.45;;;4.93;;
17864;SDS011;9058;52.018;4.202;2023-05-10T09:41:16;5.32;;;4.45;;
17864;SDS011;9058;52.018;4.202;2023-05-10T09:43:43;4.78;;;4.28;;
17864;SDS011;9058;52.018;4.202;2023-05-10T09:46:10;11.40;;;4.93;;
17864;SDS011;9058;52.018;4.202;2023-05-10T09:48:39;6.90;;;4.72;;
17864;SDS011;9058;52.018;4.202;2023-05-10T09:51:10;5.93;;;4.20;;
17864;SDS011;9058;52.018;4.202;2023-05-10T09:53:36;7.10;;;4.40;;
17864;SDS011;9058;52.018;4.202;2023-05-10T09:56:02;8.38;;;4.43;;
17864;SDS011;9058;52.018;4.202;2023-05-10T09:58:29;5.82;;;5.07;;
17864;SDS011;9058;52.018;4.202;2023-05-10T10:00:55;7.68;;;6.03;;
17864;SDS011;9058;52.018;4.202;2023-05-10T10:03:22;9.40;;;6.18;;
17864;SDS011;9058;52.018;4.202;2023-05-10T10:05:49;7.97;;;6.57;;
17864;SDS011;9058;52.018;4.202;2023-05-10T10:08:17;8.43;;;5.80;;
17864;SDS011;9058;52.018;4.202;2023-05-10T10:10:44;9.65;;;6.20;;
17864;SDS011;9058;52.018;4.202;2023-05-10T10:13:11;8.40;;;6.60;;
17864;SDS011;9058;52.018;4.202;2023-05-10T10:15:37;8.48;;;6.40;;
17864;SDS011;9058;52.018;4.202;2023-05-10T10:18:04;10.02;;;6.95;;
17864;SDS011;9058;52.018;4.202;2023-05-10T10:20:31;8.30;;;7.20;;
17864;SDS011;9058;52.018;4.202;2023-05-10T10:22:57;9.82;;;7.50;;
17864;SDS011;9058;52.018;4.202;2023-05-10T10:25:25;10.60;;;7.47;;
17864;SDS011;9058;52.018;4.202;2023-05-10T10:27:59;12.35;;;7.15;;
17864;SDS011;9058;52.018;4.202;2023-05-10T10:30:38;9.70;;;6.70;;
17864;SDS011;9058;52.018;4.202;2023-05-10T10:33:11;8.05;;;6.00;;
17864;SDS011;9058;52.018;4.202;2023-05-10T10:35:39;13.95;;;6.95;;
17864;SDS011;9058;52.018;4.202;2023-05-10T10:38:07;9.73;;;6.53;;
17864;SDS011;9058;52.018;4.202;2023-05-10T10:40:35;9.63;;;7.00;;
17864;SDS011;9058;52.018;4.202;2023-05-10T10:45:43;9.98;;;6.50;;
17864;SDS011;9058;52.018;4.202;2023-05-10T10:48:20;10.30;;;6.05;;
17864;SDS011;9058;52.018;4.202;2023-05-10T10:50:46;11.15;;;7.38;;
17864;SDS011;9058;52.018;4.202;2023-05-10T10:53:12;10.75;;;7.03;;
17864;SDS011;9058;52.018;4.202;2023-05-10T10:55:46;11.32;;;6.47;;
17864;SDS011;9058;52.018;4.202;2023-05-10T10:58:28;10.63;;;5.30;;
17864;SDS011;9058;52.018;4.202;2023-05-10T11:01:00;9.63;;;6.35;;
17864;SDS011;9058;52.018;4.202;2023-05-10T11:03:34;14.20;;;6.80;;
17864;SDS011;9058;52.018;4.202;2023-05-10T11:06:01;13.05;;;6.75;;
17864;SDS011;9058;52.018;4.202;2023-05-10T11:08:28;10.80;;;7.30;;
17864;SDS011;9058;52.018;4.202;2023-05-10T11:11:04;10.95;;;7.10;;
17864;SDS011;9058;52.018;4.202;2023-05-10T11:13:33;11.70;;;6.65;;
17864;SDS011;9058;52.018;4.202;2023-05-10T11:16:09;11.80;;;8.02;;
17864;SDS011;9058;52.018;4.202;2023-05-10T11:18:36;11.55;;;7.45;;
17864;SDS011;9058;52.018;4.202;2023-05-10T11:21:03;10.15;;;7.57;;
17864;SDS011;9058;52.018;4.202;2023-05-10T11:23:31;14.18;;;8.02;;
17864;SDS011;9058;52.018;4.202;2023-05-10T11:25:58;10.55;;;7.10;;
17864;SDS011;9058;52.018;4.202;2023-05-10T11:28:27;13.50;;;6.72;;
17864;SDS011;9058;52.018;4.202;2023-05-10T11:30:54;8.98;;;6.22;;
17864;SDS011;9058;52.018;4.202;2023-05-10T11:33:21;9.85;;;7.03;;
17864;SDS011;9058;52.018;4.202;2023-05-10T11:35:47;9.63;;;6.70;;
17864;SDS011;9058;52.018;4.202;2023-05-10T11:38:14;8.65;;;5.90;;
17864;SDS011;9058;52.018;4.202;2023-05-10T11:40:40;11.10;;;6.82;;
17864;SDS011;9058;52.018;4.202;2023-05-10T11:43:07;11.73;;;6.53;;
17864;SDS011;9058;52.018;4.202;2023-05-10T11:45:36;9.30;;;6.50;;
17864;SDS011;9058;52.018;4.202;2023-05-10T11:48:03;9.57;;;6.20;;
17864;SDS011;9058;52.018;4.202;2023-05-10T11:50:30;11.73;;;6.70;;
17864;SDS011;9058;52.018;4.202;2023-05-10T11:52:56;9.18;;;5.70;;
17864;SDS011;9058;52.018;4.202;2023-05-10T11:55:24;9.20;;;6.65;;
17864;SDS011;9058;52.018;4.202;2023-05-10T11:57:51;10.38;;;6.75;;
17864;SDS011;9058;52.018;4.202;2023-05-10T12:00:18;8.55;;;5.90;;
17864;SDS011;9058;52.018;4.202;2023-05-10T12:02:46;8.60;;;5.43;;
17864;SDS011;9058;52.018;4.202;2023-05-10T12:05:12;8.55;;;6.32;;
17864;SDS011;9058;52.018;4.202;2023-05-10T12:07:39;8.60;;;5.90;;
17864;SDS011;9058;52.018;4.202;2023-05-10T12:10:05;8.05;;;6.65;;
17864;SDS011;9058;52.018;4.202;2023-05-10T12:12:36;8.98;;;5.75;;
17864;SDS011;9058;52.018;4.202;2023-05-10T12:15:03;8.45;;;5.80;;
17864;SDS011;9058;52.018;4.202;2023-05-10T12:17:30;12.40;;;6.32;;
17864;SDS011;9058;52.018;4.202;2023-05-10T12:20:02;8.30;;;5.70;;
17864;SDS011;9058;52.018;4.202;2023-05-10T12:22:38;11.70;;;5.80;;
17864;SDS011;9058;52.018;4.202;2023-05-10T12:25:05;7.40;;;5.75;;
17864;SDS011;9058;52.018;4.202;2023-05-10T12:27:32;7.57;;;6.38;;
17864;SDS011;9058;52.018;4.202;2023-05-10T12:29:59;7.40;;;5.25;;
17864;SDS011;9058;52.018;4.202;2023-05-10T12:32:36;9.43;;;6.05;;
17864;SDS011;9058;52.018;4.202;2023-05-10T12:35:05;8.13;;;5.90;;
17864;SDS011;9058;52.018;4.202;2023-05-10T12:37:31;7.00;;;5.50;;
17864;SDS011;9058;52.018;4.202;2023-05-10T12:40:01;7.15;;;5.40;;
17864;SDS011;9058;52.018;4.202;2023-05-10T12:42:27;7.05;;;5.28;;
17864;SDS011;9058;52.018;4.202;2023-05-10T12:44:54;8.70;;;5.10;;
17864;SDS011;9058;52.018;4.202;2023-05-10T12:47:21;5.40;;;4.18;;
17864;SDS011;9058;52.018;4.202;2023-05-10T12:49:47;7.95;;;4.75;;
17864;SDS011;9058;52.018;4.202;2023-05-10T12:52:15;5.80;;;4.30;;
17864;SDS011;9058;52.018;4.202;2023-05-10T12:54:41;5.10;;;4.20;;
17864;SDS011;9058;52.018;4.202;2023-05-10T12:57:08;5.18;;;4.10;;
17864;SDS011;9058;52.018;4.202;2023-05-10T12:59:35;5.22;;;4.05;;
17864;SDS011;9058;52.018;4.202;2023-05-10T13:02:01;3.17;;;2.65;;
17864;SDS011;9058;52.018;4.202;2023-05-10T13:04:27;3.33;;;2.67;;
17864;SDS011;9058;52.018;4.202;2023-05-10T13:06:55;3.63;;;2.80;;
17864;SDS011;9058;52.018;4.202;2023-05-10T13:09:25;3.40;;;3.10;;
17864;SDS011;9058;52.018;4.202;2023-05-10T13:11:51;5.43;;;3.30;;
17864;SDS011;9058;52.018;4.202;2023-05-10T13:14:19;5.25;;;3.78;;
17864;SDS011;9058;52.018;4.202;2023-05-10T13:16:46;4.63;;;3.33;;
17864;SDS011;9058;52.018;4.202;2023-05-10T13:19:13;3.78;;;3.03;;
17864;SDS011;9058;52.018;4.202;2023-05-10T13:21:39;5.25;;;3.50;;
17864;SDS011;9058;52.018;4.202;2023-05-10T13:24:06;5.20;;;3.78;;
17864;SDS011;9058;52.018;4.202;2023-05-10T13:26:34;6.43;;;4.15;;
17864;SDS011;9058;52.018;4.202;2023-05-10T13:29:01;5.13;;;4.28;;
17864;SDS011;9058;52.018;4.202;2023-05-10T13:31:28;7.75;;;3.88;;
17864;SDS011;9058;52.018;4.202;2023-05-10T13:33:55;4.13;;;3.72;;
17864;SDS011;9058;52.018;4.202;2023-05-10T13:36:21;3.90;;;3.30;;
17864;SDS011;9058;52.018;4.202;2023-05-10T13:38:47;5.30;;;3.70;;
17864;SDS011;9058;52.018;4.202;2023-05-10T13:41:14;5.20;;;3.40;;
17864;SDS011;9058;52.018;4.202;2023-05-10T13:43:42;5.03;;;3.90;;
17864;SDS011;9058;52.018;4.202;2023-05-10T13:46:09;5.25;;;3.80;;
17864;SDS011;9058;52.018;4.202;2023-05-10T13:48:35;4.15;;;3.08;;
17864;SDS011;9058;52.018;4.202;2023-05-10T13:51:02;5.40;;;3.78;;
17864;SDS011;9058;52.018;4.202;2023-05-10T13:53:28;4.63;;;3.88;;
17864;SDS011;9058;52.018;4.202;2023-05-10T13:55:55;5.95;;;3.58;;
17864;SDS011;9058;52.018;4.202;2023-05-10T13:58:22;4.40;;;4.00;;
17864;SDS011;9058;52.018;4.202;2023-05-10T14:00:51;4.75;;;3.75;;
17864;SDS011;9058;52.018;4.202;2023-05-10T14:03:18;3.92;;;3.33;;
17864;SDS011;9058;52.018;4.202;2023-05-10T14:05:44;4.22;;;3.42;;
17864;SDS011;9058;52.018;4.202;2023-05-10T14:08:11;4.10;;;3.70;;
17864;SDS011;9058;52.018;4.202;2023-05-10T14:10:38;4.82;;;3.80;;
17864;SDS011;9058;52.018;4.202;2023-05-10T14:13:05;5.82;;;3.70;;
17864;SDS011;9058;52.018;4.202;2023-05-10T14:15:31;5.43;;;4.13;;
17864;SDS011;9058;52.018;4.202;2023-05-10T14:17:59;5.65;;;4.05;;
17864;SDS011;9058;52.018;4.202;2023-05-10T14:20:25;4.10;;;3.70;;
17864;SDS011;9058;52.018;4.202;2023-05-10T14:22:52;5.45;;;3.65;;
17864;SDS011;9058;52.018;4.202;2023-05-10T14:25:18;3.53;;;3.20;;
17864;SDS011;9058;52.018;4.202;2023-05-10T14:27:44;4.82;;;3.88;;
17864;SDS011;9058;52.018;4.202;2023-05-10T14:30:11;5.38;;;3.83;;
17864;SDS011;9058;52.018;4.202;2023-05-10T14:32:38;3.45;;;2.80;;
17864;SDS011;9058;52.018;4.202;2023-05-10T14:35:06;4.05;;;3.47;;
17864;SDS011;9058;52.018;4.202;2023-05-10T14:37:35;3.83;;;3.53;;
17864;SDS011;9058;52.018;4.202;2023-05-10T14:40:02;6.65;;;4.80;;
17864;SDS011;9058;52.018;4.202;2023-05-10T14:42:29;5.45;;;4.95;;
17864;SDS011;9058;52.018;4.202;2023-05-10T14:44:56;5.45;;;4.53;;
17864;SDS011;9058;52.018;4.202;2023-05-10T14:47:23;4.80;;;4.40;;
17864;SDS011;9058;52.018;4.202;2023-05-10T14:49:50;5.15;;;4.68;;
17864;SDS011;9058;52.018;4.202;2023-05-10T14:52:18;8.25;;;4.97;;